Time;durP1;ratioP1;P1;durP2;ratioP2;P2;SDS_P1;SDS_P2;PMS_P1;PMS_P2;Temp;Humidity;BMP_temperature;BMP_pressure;BME280_temperature;BME280_humidity;BME280_pressure;Samples;Min_cycle;Max_cycle;Signal;HPM_P1;HPM_P2
2023/09/28 00:02:54;;;;;;;9.48;3.90;;;;;;;-145.50;100.00;65435.88;5060016;28;20417;-72
2023/09/28 00:05:21;;;;;;;6.32;3.75;;;;;;;-145.50;100.00;65435.88;5060139;28;20452;-72
2023/09/28 00:07:49;;;;;;;6.55;2.92;;;;;;;-145.50;100.00;65435.88;5061613;28;20140;-72
2023/09/28 00:10:17;;;;;;;8.13;3.67;;;;;;;-145.50;100.00;65435.88;5054287;28;20118;-72
2023/09/28 00:12:48;;;;;;;5.20;3.63;;;;;;;-145.50;100.00;65435.88;5059521;28;20626;-72
2023/09/28 00:15:16;;;;;;;10.02;3.60;;;;;;;-145.50;100.00;65435.88;5059355;28;20051;-73
2023/09/28 00:17:45;;;;;;;;;;;;;;;-145.50;100.00;65435.88;5059674;28;20555;-72
2023/09/28 00:20:13;;;;;;;8.10;3.70;;;;;;;-145.50;100.00;65435.88;5049786;28;19924;-73
2023/09/28 00:22:41;;;;;;;;;;;;;;;-145.50;100.00;65435.88;5050840;28;20045;-73
2023/09/28 00:25:11;;;;;;;7.63;3.40;;;;;;;-145.50;100.00;65435.88;5040034;28;20329;-73
2023/09/28 00:27:39;;;;;;;4.68;3.20;;;;;;;-145.50;100.00;65435.88;5053857;28;20094;-73
2023/09/28 00:30:09;;;;;;;7.38;3.33;;;;;;;-145.50;100.00;65435.88;5064864;28;20044;-72
2023/09/28 00:32:36;;;;;;;8.45;3.25;;;;;;;-145.50;100.00;65435.88;5040551;28;20422;-73
2023/09/28 00:35:07;;;;;;;7.47;3.53;;;;;;;-145.50;100.00;65435.88;5060186;28;20044;-73
2023/09/28 00:37:33;;;;;;;4.35;2.80;;;;;;;-145.50;100.00;65435.88;5060705;28;20492;-72
2023/09/28 00:40:06;;;;;;;7.93;3.20;;;;;;;-145.50;100.00;65435.88;5051620;28;20471;-72
2023/09/28 00:42:33;;;;;;;5.18;3.65;;;;;;;-145.50;100.00;65435.88;5051942;28;20102;-72
2023/09/28 00:45:00;;;;;;;5.78;3.28;;;;;;;-145.50;100.00;65435.88;5057315;28;20450;-72
2023/09/28 00:47:26;;;;;;;5.80;3.70;;;;;;;-145.50;100.00;65435.88;5065984;28;20080;-72
2023/09/28 00:49:53;;;;;;;4.57;3.15;;;;;;;-145.50;100.00;65435.88;5053848;28;20062;-73
2023/09/28 00:52:20;;;;;;;9.75;3.40;;;;;;;-145.50;100.00;65435.88;5051746;28;20391;-72
2023/09/28 00:54:49;;;;;;;5.30;3.67;;;;;;;-145.50;100.00;65435.88;5042524;28;20693;-72
2023/09/28 00:57:17;;;;;;;6.75;3.60;;;;;;;-145.50;100.00;65435.88;5044341;28;20048;-72
2023/09/28 00:59:44;;;;;;;8.02;3.72;;;;;;;-145.50;100.00;65435.88;5051201;28;20053;-71
2023/09/28 01:02:10;;;;;;;8.43;3.90;;;;;;;-145.50;100.00;65435.88;5045436;28;20136;-72
2023/09/28 01:04:37;;;;;;;6.43;3.55;;;;;;;-145.50;100.00;65435.88;5064231;28;20078;-72
2023/09/28 01:07:04;;;;;;;7.00;3.80;;;;;;;-145.50;100.00;65435.88;5044390;28;20099;-73
2023/09/28 01:09:31;;;;;;;5.50;3.50;;;;;;;-145.50;100.00;65435.88;5046562;28;20076;-72
2023/09/28 01:11:57;;;;;;;8.98;4.15;;;;;;;-145.50;100.00;65435.88;5062812;28;20056;-73
2023/09/28 01:14:24;;;;;;;6.60;4.05;;;;;;;-145.50;100.00;65435.88;5045935;28;20053;-73
2023/09/28 01:16:51;;;;;;;5.93;3.53;;;;;;;-145.50;100.00;65435.88;5052372;28;20520;-72
2023/09/28 01:19:18;;;;;;;8.82;3.90;;;;;;;-145.50;100.00;65435.88;5052427;28;20052;-72
2023/09/28 01:21:44;;;;;;;8.80;3.75;;;;;;;-145.50;100.00;65435.88;5061042;28;20367;-72
2023/09/28 01:24:11;;;;;;;7.07;3.80;;;;;;;-145.50;100.00;65435.88;5045311;28;20121;-72
2023/09/28 01:26:39;;;;;;;5.57;3.50;;;;;;;-145.50;100.00;65435.88;5060082;28;20060;-71
2023/09/28 01:29:06;;;;;;;;;;;;;;;-145.50;100.00;65435.88;5052447;28;20513;-72
2023/09/28 01:31:32;;;;;;;5.70;3.85;;;;;;;-145.50;100.00;65435.88;5046913;28;19972;-72
2023/09/28 01:33:59;;;;;;;9.15;3.65;;;;;;;-145.50;100.00;65435.88;5055871;28;20122;-72
2023/09/28 01:36:25;;;;;;;6.25;3.63;;;;;;;-145.50;100.00;65435.88;5044539;28;20131;-72
2023/09/28 01:39:00;;;;;;;7.57;3.83;;;;;;;-145.50;100.00;65435.88;5055824;28;20114;-74
2023/09/28 01:41:27;;;;;;;8.43;4.10;;;;;;;-145.50;100.00;65435.88;5056462;28;20631;-73
2023/09/28 01:43:53;;;;;;;7.60;3.90;;;;;;;-145.50;100.00;65435.88;5054696;28;20049;-73
2023/09/28 01:46:20;;;;;;;6.63;3.72;;;;;;;-145.50;100.00;65435.88;5057696;28;20145;-72
2023/09/28 01:48:47;;;;;;;6.35;4.13;;;;;;;-145.50;100.00;65435.88;5049334;28;20056;-72
2023/09/28 01:51:13;;;;;;;5.85;4.05;;;;;;;-145.50;100.00;65435.88;5063887;28;20049;-73
2023/09/28 01:53:40;;;;;;;8.65;4.15;;;;;;;-145.50;100.00;65435.88;5044496;28;20049;-73
2023/09/28 01:56:07;;;;;;;6.15;4.10;;;;;;;-145.50;100.00;65435.88;5060240;28;20133;-73
2023/09/28 01:58:33;;;;;;;5.75;3.88;;;;;;;-145.50;100.00;65435.88;5047438;28;20148;-72
2023/09/28 02:01:00;;;;;;;6.45;3.80;;;;;;;-145.50;100.00;65435.88;5045243;28;20053;-73
2023/09/28 02:03:28;;;;;;;8.70;4.10;;;;;;;-145.50;100.00;65435.88;5054549;28;20056;-73
2023/09/28 02:05:55;;;;;;;10.10;3.85;;;;;;;-145.50;100.00;65435.88;5038405;28;20057;-73
2023/09/28 02:08:22;;;;;;;7.32;3.78;;;;;;;-145.50;100.00;65435.88;5063662;28;20105;-73
2023/09/28 02:10:48;;;;;;;6.10;4.03;;;;;;;-145.50;100.00;65435.88;5055736;28;20048;-73
2023/09/28 02:13:15;;;;;;;6.85;3.90;;;;;;;-145.50;100.00;65435.88;5054836;28;20140;-72
2023/09/28 02:15:42;;;;;;;6.30;4.10;;;;;;;-145.50;100.00;65435.88;5041468;28;20523;-72
2023/09/28 02:18:09;;;;;;;7.85;4.07;;;;;;;-145.50;100.00;65435.88;5061962;28;20056;-73
2023/09/28 02:20:35;;;;;;;6.97;4.10;;;;;;;-145.50;100.00;65435.88;5065026;28;20057;-73
2023/09/28 02:23:02;;;;;;;10.35;4.30;;;;;;;-145.50;100.00;65435.88;5055279;28;21030;-73
2023/09/28 02:25:29;;;;;;;8.23;4.38;;;;;;;-145.50;100.00;65435.88;5064495;28;20048;-72
2023/09/28 02:27:56;;;;;;;8.20;4.35;;;;;;;-145.50;100.00;65435.88;5045448;28;20375;-73
2023/09/28 02:30:23;;;;;;;8.10;4.40;;;;;;;-145.50;100.00;65435.88;5049116;28;20511;-72
2023/09/28 02:32:51;;;;;;;7.80;4.20;;;;;;;-145.50;100.00;65435.88;5050810;28;20391;-73
2023/09/28 02:35:19;;;;;;;6.85;4.35;;;;;;;-145.50;100.00;65435.88;5058338;28;20037;-72
2023/09/28 02:37:48;;;;;;;5.95;3.90;;;;;;;-145.50;100.00;65435.88;5058853;28;20076;-73
2023/09/28 02:40:17;;;;;;;6.55;4.35;;;;;;;-145.50;100.00;65435.88;5049952;28;20056;-72
2023/09/28 02:42:45;;;;;;;9.15;3.92;;;;;;;-145.50;100.00;65435.88;5053326;28;20101;-72
2023/09/28 02:45:12;;;;;;;6.22;3.63;;;;;;;-145.50;100.00;65435.88;5037041;28;20052;-72
2023/09/28 02:47:44;;;;;;;6.78;4.10;;;;;;;-145.50;100.00;65435.88;5063221;28;20045;-73
2023/09/28 02:50:12;;;;;;;6.28;4.07;;;;;;;-145.50;100.00;65435.88;5056138;28;20465;-72
2023/09/28 02:52:42;;;;;;;6.85;4.10;;;;;;;-145.50;100.00;65435.88;5064720;28;20106;-73
2023/09/28 02:55:10;;;;;;;6.57;4.07;;;;;;;-145.50;100.00;65435.88;5049945;28;20132;-73
2023/09/28 02:57:37;;;;;;;9.15;4.18;;;;;;;-145.50;100.00;65435.88;5047713;28;20036;-73
2023/09/28 03:00:32;;;;;;;6.60;4.20;;;;;;;-145.50;100.00;65435.88;5057899;28;20542;-72
2023/09/28 03:03:05;;;;;;;8.90;4.07;;;;;;;-145.50;100.00;65435.88;5045808;28;20055;-73
2023/09/28 03:05:32;;;;;;;9.10;4.32;;;;;;;-145.50;100.00;65435.88;5056351;28;20488;-73
2023/09/28 03:07:59;;;;;;;6.72;4.10;;;;;;;-145.50;100.00;65435.88;5048594;28;20133;-73
2023/09/28 03:10:26;;;;;;;9.85;4.45;;;;;;;-145.50;100.00;65435.88;5044889;28;20052;-72
2023/09/28 03:12:56;;;;;;;10.38;4.47;;;;;;;-145.50;100.00;65435.88;5044355;28;20053;-72
2023/09/28 03:15:22;;;;;;;8.35;4.10;;;;;;;-145.50;100.00;65435.88;5059330;28;20291;-73
2023/09/28 03:17:49;;;;;;;11.52;4.13;;;;;;;-145.50;100.00;65435.88;5059742;28;20331;-73
2023/09/28 03:20:17;;;;;;;6.07;4.40;;;;;;;-145.50;100.00;65435.88;5057245;28;20129;-72
2023/09/28 03:22:47;;;;;;;8.60;4.60;;;;;;;-145.50;100.00;65435.88;5050454;28;20074;-73
2023/09/28 03:25:17;;;;;;;9.38;4.70;;;;;;;-145.50;100.00;65435.88;5034380;28;20076;-73
2023/09/28 03:27:46;;;;;;;7.65;4.32;;;;;;;-145.50;100.00;65435.88;5063798;28;20053;-73
2023/09/28 03:30:13;;;;;;;6.30;4.53;;;;;;;-145.50;100.00;65435.88;5051097;28;20528;-72
2023/09/28 03:32:40;;;;;;;7.97;4.50;;;;;;;-145.50;100.00;65435.88;5063485;28;20045;-73
2023/09/28 03:35:10;;;;;;;7.70;4.22;;;;;;;-145.50;100.00;65435.88;5064740;28;20044;-72
2023/09/28 03:37:37;;;;;;;9.35;4.97;;;;;;;-145.50;100.00;65435.88;5054604;28;20041;-73
2023/09/28 03:40:10;;;;;;;6.60;4.20;;;;;;;-145.50;100.00;65435.88;5058255;28;20048;-73
2023/09/28 03:42:38;;;;;;;8.68;4.85;;;;;;;-145.50;100.00;65435.88;5042502;28;20609;-72
2023/09/28 03:45:08;;;;;;;8.02;4.60;;;;;;;-145.50;100.00;65435.88;5058234;28;20048;-72
2023/09/28 03:47:39;;;;;;;9.13;4.55;;;;;;;-145.50;100.00;65435.88;5046437;28;20044;-72
2023/09/28 03:50:12;;;;;;;11.20;5.05;;;;;;;-145.50;100.00;65435.88;5064983;28;20052;-72
2023/09/28 03:52:40;;;;;;;7.45;4.72;;;;;;;-145.50;100.00;65435.88;5053007;28;20076;-72
2023/09/28 03:55:12;;;;;;;7.68;4.70;;;;;;;-145.50;100.00;65435.88;5050032;28;20049;-72
2023/09/28 03:57:39;;;;;;;7.50;4.40;;;;;;;-145.50;100.00;65435.88;5052296;28;20111;-72
2023/09/28 04:00:07;;;;;;;8.77;4.90;;;;;;;-145.50;100.00;65435.88;5055964;28;20056;-72
2023/09/28 04:02:33;;;;;;;12.25;5.13;;;;;;;-145.50;100.00;65435.88;5066613;28;20056;-72
2023/09/28 04:05:00;;;;;;;10.82;4.75;;;;;;;-145.50;100.00;65435.88;5038329;28;20047;-72
2023/09/28 04:07:27;;;;;;;8.40;4.53;;;;;;;-145.50;100.00;65435.88;5063830;28;20101;-72
2023/09/28 04:09:53;;;;;;;7.90;4.68;;;;;;;-145.50;100.00;65435.88;5056678;28;20524;-72
2023/09/28 04:12:19;;;;;;;8.40;4.72;;;;;;;-145.50;100.00;65435.88;5040397;28;20138;-72
2023/09/28 04:14:46;;;;;;;10.43;4.78;;;;;;;-145.50;100.00;65435.88;5047176;28;20053;-72
2023/09/28 04:17:12;;;;;;;11.82;5.07;;;;;;;-145.50;100.00;65435.88;5040781;28;20080;-72
2023/09/28 04:19:42;;;;;;;9.20;4.82;;;;;;;-145.50;100.00;65435.88;5059991;28;20045;-72
2023/09/28 04:22:09;;;;;;;7.68;4.07;;;;;;;-145.50;100.00;65435.88;5044133;28;20063;-73
2023/09/28 04:24:35;;;;;;;8.40;4.93;;;;;;;-145.50;100.00;65435.88;5067182;28;20387;-72
2023/09/28 04:27:02;;;;;;;11.55;5.15;;;;;;;-145.50;100.00;65435.88;5056938;28;20562;-71
2023/09/28 04:29:28;;;;;;;8.45;4.90;;;;;;;-145.50;100.00;65435.88;5044603;28;20052;-72
2023/09/28 04:31:55;;;;;;;9.98;4.75;;;;;;;-145.50;100.00;65435.88;5059217;28;20056;-72
2023/09/28 04:34:22;;;;;;;9.52;5.15;;;;;;;-145.50;100.00;65435.88;5046180;28;20048;-72
2023/09/28 04:36:50;;;;;;;7.95;4.97;;;;;;;-145.50;100.00;65435.88;5062734;28;20045;-74
2023/09/28 04:39:17;;;;;;;10.07;5.30;;;;;;;-145.50;100.00;65435.88;5057774;28;20352;-73
2023/09/28 04:41:43;;;;;;;8.65;5.00;;;;;;;-145.50;100.00;65435.88;5062185;28;20579;-72
2023/09/28 04:44:10;;;;;;;13.70;4.88;;;;;;;-145.50;100.00;65435.88;5042617;28;20072;-73
2023/09/28 04:46:37;;;;;;;11.05;5.45;;;;;;;-145.50;100.00;65435.88;5050616;28;20044;-72
2023/09/28 04:49:04;;;;;;;11.32;5.50;;;;;;;-145.50;100.00;65435.88;5057333;28;20140;-72
2023/09/28 04:51:30;;;;;;;8.82;4.78;;;;;;;-145.50;100.00;65435.88;5046247;28;20086;-72
2023/09/28 04:53:57;;;;;;;9.70;5.13;;;;;;;-145.50;100.00;65435.88;5056961;28;20087;-72
2023/09/28 04:56:24;;;;;;;9.48;4.70;;;;;;;-145.50;100.00;65435.88;5050512;28;20515;-72
2023/09/28 04:58:50;;;;;;;10.43;5.50;;;;;;;-145.50;100.00;65435.88;5044116;28;20214;-72
2023/09/28 05:01:17;;;;;;;7.60;4.93;;;;;;;-145.50;100.00;65435.88;5051835;28;20072;-72
2023/09/28 05:03:44;;;;;;;14.00;5.80;;;;;;;-145.50;100.00;65435.88;5057960;28;20114;-72
2023/09/28 05:06:10;;;;;;;8.52;5.03;;;;;;;-145.50;100.00;65435.88;5051397;28;20506;-72
2023/09/28 05:08:37;;;;;;;7.00;4.88;;;;;;;-145.50;100.00;65435.88;5056608;28;20566;-72
2023/09/28 05:11:03;;;;;;;9.27;4.80;;;;;;;-145.50;100.00;65435.88;5057541;28;20055;-72
2023/09/28 05:13:30;;;;;;;7.32;5.13;;;;;;;-145.50;100.00;65435.88;5061509;28;20059;-72
2023/09/28 05:15:57;;;;;;;9.65;5.55;;;;;;;-145.50;100.00;65435.88;5048159;28;20041;-72
2023/09/28 05:18:23;;;;;;;10.20;5.80;;;;;;;-145.50;100.00;65435.88;5064974;28;20105;-72
2023/09/28 05:20:50;;;;;;;8.88;5.38;;;;;;;-145.50;100.00;65435.88;5044971;28;20524;-72
2023/09/28 05:23:17;;;;;;;10.68;5.90;;;;;;;-145.50;100.00;65435.88;5066579;28;20139;-74
2023/09/28 05:25:43;;;;;;;8.15;5.63;;;;;;;-145.50;100.00;65435.88;5053409;28;20493;-73
2023/09/28 05:28:10;;;;;;;8.30;4.93;;;;;;;-145.50;100.00;65435.88;5053605;28;20464;-72
2023/09/28 05:30:36;;;;;;;11.90;5.63;;;;;;;-145.50;100.00;65435.88;5063915;28;20543;-73
2023/09/28 05:33:04;;;;;;;10.18;5.78;;;;;;;-145.50;100.00;65435.88;5046029;28;20501;-73
2023/09/28 05:35:31;;;;;;;11.65;5.50;;;;;;;-145.50;100.00;65435.88;5063316;28;20041;-72
2023/09/28 05:37:57;;;;;;;10.32;5.45;;;;;;;-145.50;100.00;65435.88;5056913;28;20102;-72
2023/09/28 05:40:25;;;;;;;12.48;5.68;;;;;;;-145.50;100.00;65435.88;5047905;28;20053;-72
2023/09/28 05:42:52;;;;;;;9.07;5.57;;;;;;;-145.50;100.00;65435.88;5039080;28;20136;-72
2023/09/28 05:45:18;;;;;;;14.98;6.00;;;;;;;-145.50;100.00;65435.88;5056735;28;20135;-72
2023/09/28 05:47:46;;;;;;;10.45;5.38;;;;;;;-145.50;100.00;65435.88;5054332;28;20056;-73
2023/09/28 05:50:13;;;;;;;9.48;4.93;;;;;;;-145.50;100.00;65435.88;5050711;28;20558;-72
2023/09/28 05:52:40;;;;;;;17.15;5.72;;;;;;;-145.50;100.00;65435.88;5062516;28;20135;-72
2023/09/28 05:55:07;;;;;;;12.95;5.95;;;;;;;-145.50;100.00;65435.88;5067732;28;20523;-72
2023/09/28 05:57:34;;;;;;;9.47;5.27;;;;;;;-145.50;100.00;65435.88;5064771;28;20118;-73
2023/09/28 06:00:09;;;;;;;14.38;5.97;;;;;;;-145.50;100.00;65435.88;5044923;28;20373;-72
2023/09/28 06:02:36;;;;;;;11.43;5.13;;;;;;;-145.50;100.00;65435.88;5054437;28;20057;-72
2023/09/28 06:05:04;;;;;;;14.85;5.57;;;;;;;-145.50;100.00;65435.88;5062761;28;20395;-72
2023/09/28 06:07:31;;;;;;;10.15;5.05;;;;;;;-145.50;100.00;65435.88;5038405;28;20106;-72
2023/09/28 06:09:57;;;;;;;12.27;4.97;;;;;;;-145.50;100.00;65435.88;5051296;28;20130;-72
2023/09/28 06:12:24;;;;;;;13.55;5.07;;;;;;;-145.50;100.00;65435.88;5057891;28;20059;-72
2023/09/28 06:14:50;;;;;;;13.80;5.32;;;;;;;-145.50;100.00;65435.88;5086163;28;20063;-72
2023/09/28 06:17:17;;;;;;;13.15;5.55;;;;;;;-145.50;100.00;65435.88;5078620;28;20033;-72
2023/09/28 06:19:44;;;;;;;6.82;4.28;;;;;;;-145.50;100.00;65435.88;5072517;28;20486;-72
2023/09/28 06:22:23;;;;;;;8.88;4.60;;;;;;;-145.50;100.00;65435.88;5047516;28;20049;-72
2023/09/28 06:24:50;;;;;;;10.50;5.28;;;;;;;-145.50;100.00;65435.88;5056645;28;20571;-72
2023/09/28 06:27:16;;;;;;;9.02;5.38;;;;;;;-145.50;100.00;65435.88;5058571;28;20076;-72
2023/09/28 06:29:42;;;;;;;12.13;4.82;;;;;;;-145.50;100.00;65435.88;5057002;28;20098;-72
2023/09/28 06:32:09;;;;;;;11.63;5.05;;;;;;;-145.50;100.00;65435.88;5056394;28;20064;-72
2023/09/28 06:34:36;;;;;;;14.32;5.68;;;;;;;-145.50;100.00;65435.88;5049067;28;20142;-73
2023/09/28 06:37:03;;;;;;;13.98;5.03;;;;;;;-145.50;100.00;65435.88;5053239;28;20118;-73
2023/09/28 06:39:30;;;;;;;11.85;4.78;;;;;;;-145.50;100.00;65435.88;5055126;28;20067;-72
2023/09/28 06:41:56;;;;;;;11.15;5.25;;;;;;;-145.50;100.00;65435.88;5043658;28;20057;-72
2023/09/28 06:44:35;;;;;;;13.97;5.57;;;;;;;-145.50;100.00;65435.88;5046338;28;20049;-72
2023/09/28 06:47:02;;;;;;;12.30;5.20;;;;;;;-145.50;100.00;65435.88;5041562;28;20301;-73
2023/09/28 06:49:28;;;;;;;12.00;5.10;;;;;;;-145.50;100.00;65435.88;5052333;28;20061;-73
2023/09/28 06:51:55;;;;;;;11.15;5.90;;;;;;;-145.50;100.00;65435.88;5047219;28;20056;-74
2023/09/28 06:54:21;;;;;;;12.80;5.80;;;;;;;-145.50;100.00;65435.88;5062990;28;20517;-73
2023/09/28 06:56:48;;;;;;;12.27;5.25;;;;;;;-145.50;100.00;65435.88;5059496;28;20040;-73
2023/09/28 06:59:15;;;;;;;14.05;5.55;;;;;;;-145.50;100.00;65435.88;5055017;28;20139;-75
2023/09/28 07:01:42;;;;;;;12.52;5.05;;;;;;;-145.50;100.00;65435.88;5055639;28;20055;-73
2023/09/28 07:04:09;;;;;;;14.90;5.05;;;;;;;-145.50;100.00;65435.88;5061579;28;20059;-74
2023/09/28 07:06:35;;;;;;;11.88;4.15;;;;;;;-145.50;100.00;65435.88;5057946;28;20547;-73
2023/09/28 07:09:03;;;;;;;17.23;4.95;;;;;;;-145.50;100.00;65435.88;5059003;28;20057;-74
2023/09/28 07:11:30;;;;;;;14.43;4.80;;;;;;;-145.50;100.00;65435.88;5064724;28;20099;-74
2023/09/28 07:13:56;;;;;;;12.90;4.55;;;;;;;-145.50;100.00;65435.88;5046152;28;20126;-74
2023/09/28 07:16:23;;;;;;;17.23;4.82;;;;;;;-145.50;100.00;65435.88;5060015;28;20120;-73
2023/09/28 07:18:50;;;;;;;22.80;4.93;;;;;;;-145.50;100.00;65435.88;5056503;28;20052;-74
2023/09/28 07:21:16;;;;;;;17.00;5.00;;;;;;;-145.50;100.00;65435.88;5055147;28;20048;-74
2023/09/28 07:23:43;;;;;;;17.05;4.28;;;;;;;-145.50;100.00;65435.88;5067695;28;20071;-73
2023/09/28 07:26:16;;;;;;;23.52;4.40;;;;;;;-145.50;100.00;65435.88;5052914;28;20711;-73
2023/09/28 07:28:44;;;;;;;16.55;4.32;;;;;;;-145.50;100.00;65435.88;5061400;28;20060;-74
2023/09/28 07:31:12;;;;;;;19.58;4.70;;;;;;;-145.50;100.00;65435.88;5051309;28;20088;-74
2023/09/28 07:33:40;;;;;;;21.40;4.22;;;;;;;-145.50;100.00;65435.88;5060488;28;20044;-74
2023/09/28 07:36:07;;;;;;;22.33;3.90;;;;;;;-145.50;100.00;65435.88;5054663;28;20080;-74
2023/09/28 07:38:34;;;;;;;12.20;3.55;;;;;;;-145.50;100.00;65435.88;5058856;28;20513;-73
2023/09/28 07:41:01;;;;;;;16.10;3.53;;;;;;;-145.50;100.00;65435.88;5054574;28;20062;-73
2023/09/28 07:43:29;;;;;;;14.65;4.47;;;;;;;-145.50;100.00;65435.88;5060209;28;20045;-71
2023/09/28 07:45:56;;;;;;;17.73;4.55;;;;;;;-145.50;100.00;65435.88;5066207;28;20130;-74
2023/09/28 07:48:22;;;;;;;25.25;4.05;;;;;;;-145.50;100.00;65435.88;5062710;28;20052;-73
2023/09/28 07:50:50;;;;;;;22.17;3.90;;;;;;;-145.50;100.00;65435.88;5066192;28;20055;-73
2023/09/28 07:53:17;;;;;;;22.80;4.03;;;;;;;-145.50;100.00;65435.88;5061269;28;20104;-74
2023/09/28 07:55:44;;;;;;;19.10;3.17;;;;;;;-145.50;100.00;65435.88;5051988;28;20043;-73
2023/09/28 07:58:11;;;;;;;18.08;3.33;;;;;;;-145.50;100.00;65435.88;5067675;28;20052;-74
2023/09/28 08:00:44;;;;;;;27.38;5.18;;;;;;;-145.50;100.00;65435.88;5054061;28;20117;-73
2023/09/28 08:03:12;;;;;;;22.60;3.45;;;;;;;-145.50;100.00;65435.88;5053840;28;20072;-73
2023/09/28 08:05:39;;;;;;;26.33;3.85;;;;;;;-145.50;100.00;65435.88;5061841;28;20521;-72
2023/09/28 08:08:05;;;;;;;25.50;3.58;;;;;;;-145.50;100.00;65435.88;5062603;28;20052;-74
2023/09/28 08:10:42;;;;;;;19.17;3.40;;;;;;;-145.50;100.00;65435.88;5063097;28;20103;-74
2023/09/28 08:13:09;;;;;;;24.80;4.20;;;;;;;-145.50;100.00;65435.88;5061738;28;20106;-72
2023/09/28 08:15:39;;;;;;;21.67;3.30;;;;;;;-145.50;100.00;65435.88;5068667;28;20063;-73
2023/09/28 08:18:05;;;;;;;22.23;4.32;;;;;;;-145.50;100.00;65435.88;5060405;28;20063;-73
2023/09/28 08:20:35;;;;;;;22.98;3.47;;;;;;;-145.50;100.00;65435.88;5053313;28;20060;-73
2023/09/28 08:23:04;;;;;;;26.08;4.38;;;;;;;-145.50;100.00;65435.88;5045914;28;20098;-72
2023/09/28 08:25:32;;;;;;;21.48;3.22;;;;;;;-145.50;100.00;65435.88;5047641;28;20056;-72
2023/09/28 08:27:59;;;;;;;24.50;3.63;;;;;;;-145.50;100.00;65435.88;5057950;28;20102;-73
2023/09/28 08:30:26;;;;;;;21.30;3.95;;;;;;;-145.50;100.00;65435.88;5053782;28;20053;-73
2023/09/28 08:32:53;;;;;;;16.20;3.63;;;;;;;-145.50;100.00;65435.88;5066208;28;20475;-73
2023/09/28 08:35:20;;;;;;;23.63;3.55;;;;;;;-145.50;100.00;65435.88;5045991;28;20075;-74
2023/09/28 08:37:47;;;;;;;23.17;4.43;;;;;;;-145.50;100.00;65435.88;5054361;28;20477;-73
2023/09/28 08:40:14;;;;;;;24.00;3.58;;;;;;;-145.50;100.00;65435.88;5042882;28;21261;-73
2023/09/28 08:42:45;;;;;;;24.52;3.90;;;;;;;-145.50;100.00;65435.88;5060660;28;20057;-73
2023/09/28 08:45:15;;;;;;;22.58;3.80;;;;;;;-145.50;100.00;65435.88;5060563;28;20052;-73
2023/09/28 08:47:48;;;;;;;22.95;3.53;;;;;;;-145.50;100.00;65435.88;5049791;28;20513;-73
2023/09/28 08:50:20;;;;;;;25.63;3.55;;;;;;;-145.50;100.00;65435.88;5047330;28;20053;-73
2023/09/28 08:52:47;;;;;;;21.40;4.00;;;;;;;-145.50;100.00;65435.88;5051701;28;20053;-73
2023/09/28 08:55:14;;;;;;;16.48;4.35;;;;;;;-145.50;100.00;65435.88;5052019;28;20160;-73
2023/09/28 08:57:42;;;;;;;22.40;3.77;;;;;;;-145.50;100.00;65435.88;5060130;28;20540;-72
2023/09/28 09:00:13;;;;;;;22.52;3.45;;;;;;;-145.50;100.00;65435.88;5065706;28;20292;-72
2023/09/28 09:02:43;;;;;;;20.77;3.30;;;;;;;-145.50;100.00;65435.88;5054157;28;20489;-73
2023/09/28 09:05:14;;;;;;;17.55;2.70;;;;;;;-145.50;100.00;65435.88;5049322;28;20059;-72
2023/09/28 09:07:43;;;;;;;21.15;3.10;;;;;;;-145.50;100.00;65435.88;5065532;28;20080;-72
2023/09/28 09:10:16;;;;;;;18.60;3.33;;;;;;;-145.50;100.00;65435.88;5058301;28;20420;-72
2023/09/28 09:12:43;;;;;;;20.58;3.70;;;;;;;-145.50;100.00;65435.88;5053535;28;20135;-72
2023/09/28 09:15:10;;;;;;;20.67;3.72;;;;;;;-145.50;100.00;65435.88;5044873;28;20060;-72
2023/09/28 09:17:37;;;;;;;19.15;3.92;;;;;;;-145.50;100.00;65435.88;5059604;28;20123;-73
2023/09/28 09:20:08;;;;;;;23.67;3.88;;;;;;;-145.50;100.00;65435.88;5059199;28;20519;-73
2023/09/28 09:22:35;;;;;;;25.15;4.15;;;;;;;-145.50;100.00;65435.88;5064234;28;20493;-73
2023/09/28 09:25:20;;;;;;;17.88;3.45;;;;;;;-145.50;100.00;65435.88;5063622;28;20063;-73
2023/09/28 09:27:48;;;;;;;20.08;3.63;;;;;;;-145.50;100.00;65435.88;5046825;28;20492;-73
2023/09/28 09:30:15;;;;;;;19.73;4.03;;;;;;;-145.50;100.00;65435.88;5060748;28;20052;-73
2023/09/28 09:32:42;;;;;;;19.40;3.95;;;;;;;-145.50;100.00;65435.88;5048071;28;20593;-73
2023/09/28 09:35:13;;;;;;;19.90;3.95;;;;;;;-145.50;100.00;65435.88;5056794;28;20140;-73
2023/09/28 09:37:41;;;;;;;20.90;4.00;;;;;;;-145.50;100.00;65435.88;5047400;28;20062;-73
2023/09/28 09:40:12;;;;;;;16.92;3.42;;;;;;;-145.50;100.00;65435.88;5064119;28;20489;-73
2023/09/28 09:42:41;;;;;;;22.45;3.63;;;;;;;-145.50;100.00;65435.88;5058176;28;20445;-73
2023/09/28 09:45:11;;;;;;;19.02;3.65;;;;;;;-145.50;100.00;65435.88;5047360;28;20059;-72
2023/09/28 09:47:48;;;;;;;20.75;3.72;;;;;;;-145.50;100.00;65435.88;5056498;28;20393;-73
2023/09/28 09:50:17;;;;;;;20.17;3.88;;;;;;;-145.50;100.00;65435.88;5049679;28;20057;-73
2023/09/28 09:52:44;;;;;;;21.65;3.80;;;;;;;-145.50;100.00;65435.88;5060307;28;20066;-72
2023/09/28 09:55:12;;;;;;;23.40;3.92;;;;;;;-145.50;100.00;65435.88;5040318;28;20351;-73
2023/09/28 09:57:41;;;;;;;19.90;3.63;;;;;;;-145.50;100.00;65435.88;5051006;28;20049;-73
2023/09/28 10:00:09;;;;;;;24.63;3.88;;;;;;;-145.50;100.00;65435.88;5046707;28;20061;-74
2023/09/28 10:02:40;;;;;;;22.40;3.75;;;;;;;-145.50;100.00;65435.88;5044962;28;20049;-73
2023/09/28 10:05:09;;;;;;;12.27;2.88;;;;;;;-145.50;100.00;65435.88;5065460;28;20052;-73
2023/09/28 10:07:37;;;;;;;24.45;4.20;;;;;;;-145.50;100.00;65435.88;5058357;28;20060;-73
2023/09/28 10:10:07;;;;;;;21.42;4.13;;;;;;;-145.50;100.00;65435.88;5057312;28;20102;-73
2023/09/28 10:12:34;;;;;;;19.27;3.33;;;;;;;-145.50;100.00;65435.88;5043029;28;20083;-73
2023/09/28 10:15:02;;;;;;;18.67;3.70;;;;;;;-145.50;100.00;65435.88;5059274;28;20337;-73
2023/09/28 10:17:29;;;;;;;16.55;3.80;;;;;;;-145.50;100.00;65435.88;5063309;28;20078;-73
2023/09/28 10:19:57;;;;;;;19.23;4.07;;;;;;;-145.50;100.00;65435.88;5048107;28;20076;-74
2023/09/28 10:22:24;;;;;;;19.27;3.47;;;;;;;-145.50;100.00;65435.88;5058691;28;20068;-73
2023/09/28 10:24:50;;;;;;;20.63;3.85;;;;;;;-145.50;100.00;65435.88;5055441;28;20398;-73
2023/09/28 10:27:17;;;;;;;24.92;3.63;;;;;;;-145.50;100.00;65435.88;5054611;28;20296;-74
2023/09/28 10:29:44;;;;;;;16.88;3.90;;;;;;;-145.50;100.00;65435.88;5061422;28;20051;-72
2023/09/28 10:32:27;;;;;;;16.60;3.35;;;;;;;-145.50;100.00;65435.88;5066732;28;20647;-74
2023/09/28 10:35:20;;;;;;;17.23;3.05;;;;;;;-145.50;100.00;65435.88;5062623;28;20048;-74
2023/09/28 10:38:22;;;;;;;18.65;3.38;;;;;;;-145.50;100.00;65435.88;5058394;28;20054;-73
2023/09/28 10:41:01;;;;;;;19.35;3.63;;;;;;;-145.50;100.00;65435.88;5057761;28;20056;-74
2023/09/28 10:43:30;;;;;;;19.23;3.30;;;;;;;-145.50;100.00;65435.88;5069939;28;20078;-73
2023/09/28 10:46:00;;;;;;;23.77;3.72;;;;;;;-145.50;100.00;65435.88;5071303;28;20485;-72
2023/09/28 10:48:44;;;;;;;20.98;3.78;;;;;;;-145.50;100.00;65435.88;5064049;28;20567;-73
2023/09/28 10:51:13;;;;;;;17.52;3.33;;;;;;;-145.50;100.00;65435.88;5065221;28;20393;-73
2023/09/28 10:53:40;;;;;;;24.33;3.88;;;;;;;-145.50;100.00;65435.88;5058784;28;20053;-73
2023/09/28 10:56:06;;;;;;;18.08;3.67;;;;;;;-145.50;100.00;65435.88;5059575;28;20037;-74
2023/09/28 10:58:38;;;;;;;20.25;4.15;;;;;;;-145.50;100.00;65435.88;5061013;28;20091;-74
2023/09/28 11:01:06;;;;;;;18.52;3.53;;;;;;;-145.50;100.00;65435.88;5065531;28;20052;-74
2023/09/28 11:03:34;;;;;;;24.73;3.75;;;;;;;-145.50;100.00;65435.88;5051735;28;20412;-75
2023/09/28 11:06:03;;;;;;;14.82;3.92;;;;;;;-145.50;100.00;65435.88;5052521;28;20052;-72
2023/09/28 11:08:33;;;;;;;20.95;3.35;;;;;;;-145.50;100.00;65435.88;5069568;28;20408;-74
2023/09/28 11:11:01;;;;;;;13.52;3.75;;;;;;;-145.50;100.00;65435.88;5051268;28;20583;-74
2023/09/28 11:13:31;;;;;;;;;;;;;;;-145.50;100.00;65435.88;5062337;28;20056;-72